createdAt,value
2019-04-12T00:01:42.049Z,32.97
2019-04-12T00:04:11.418Z,36.57
2019-04-12T00:06:40.780Z,34.30
2019-04-12T00:09:10.100Z,34.63
2019-04-12T00:11:39.487Z,36.47
2019-04-12T00:14:08.852Z,33.83
2019-04-12T00:16:38.249Z,31.80
2019-04-12T00:19:07.742Z,32.50
2019-04-12T00:21:37.098Z,26.43
2019-04-12T00:24:06.459Z,30.07
2019-04-12T00:26:35.804Z,24.87
2019-04-12T00:29:05.151Z,23.77
2019-04-12T00:31:34.509Z,21.93
2019-04-12T00:34:03.800Z,21.13
2019-04-12T00:36:33.164Z,22.40
2019-04-12T00:39:02.613Z,21.77
2019-04-12T00:41:33.019Z,24.80
2019-04-12T00:44:03.287Z,21.83
2019-04-12T00:46:35.080Z,27.10
2019-04-12T00:49:03.913Z,21.80
2019-04-12T00:51:33.308Z,23.93
2019-04-12T00:54:02.698Z,21.70
2019-04-12T00:56:31.987Z,22.57
2019-04-12T00:59:01.346Z,26.57
2019-04-12T01:01:41.941Z,27.97
2019-04-12T01:04:20.338Z,27.53
2019-04-12T01:06:49.722Z,23.80
2019-04-12T01:09:21.952Z,24.67
2019-04-12T01:11:50.232Z,21.47
2019-04-12T01:14:19.642Z,22.00
2019-04-12T01:16:49.049Z,26.10
2019-04-12T01:19:18.493Z,23.80
2019-04-12T01:21:48.187Z,23.17
2019-04-12T01:24:17.549Z,20.73
2019-04-12T01:26:47.179Z,18.57
2019-04-12T01:29:18.056Z,17.00
2019-04-12T01:31:48.035Z,18.53
2019-04-12T01:34:17.379Z,18.83
2019-04-12T01:36:46.748Z,14.07
2019-04-12T01:39:16.122Z,14.27
2019-04-12T01:41:45.496Z,11.83
2019-04-12T01:44:14.970Z,11.60
2019-04-12T01:46:44.315Z,11.57
2019-04-12T01:49:13.715Z,11.07
2019-04-12T01:51:43.038Z,10.77
2019-04-12T01:54:12.435Z,11.13
2019-04-12T01:56:41.795Z,11.13
2019-04-12T01:59:11.204Z,10.40
2019-04-12T02:01:40.605Z,11.20
2019-04-12T02:04:10.406Z,12.87
2019-04-12T02:06:40.221Z,13.97
2019-04-12T02:09:09.565Z,12.57
2019-04-12T02:11:38.972Z,11.30
2019-04-12T02:14:08.359Z,9.97
2019-04-12T02:16:37.732Z,10.03
2019-04-12T02:19:07.091Z,10.10
2019-04-12T02:21:36.498Z,10.43
2019-04-12T02:24:05.873Z,9.37
2019-04-12T02:26:35.287Z,9.60
2019-04-12T02:29:04.632Z,10.27
2019-04-12T02:31:53.307Z,9.47
2019-04-12T02:34:23.818Z,9.37
2019-04-12T02:36:53.256Z,9.03
2019-04-12T02:39:22.602Z,9.60
2019-04-12T02:41:52.553Z,10.13
2019-04-12T02:44:23.610Z,8.93
2019-04-12T02:47:21.732Z,10.37
2019-04-12T02:50:20.403Z,10.03
2019-04-12T02:52:57.563Z,11.27
2019-04-12T02:55:38.384Z,11.17
2019-04-12T02:58:30.160Z,11.60
2019-04-12T03:01:03.070Z,11.20
2019-04-12T03:03:33.057Z,12.17
2019-04-12T03:06:02.402Z,12.70
2019-04-12T03:08:31.882Z,12.73
2019-04-12T03:11:02.107Z,15.13
2019-04-12T03:13:32.482Z,12.50
2019-04-12T03:16:03.460Z,16.33
2019-04-12T03:18:33.901Z,14.33
2019-04-12T03:21:03.905Z,14.03
2019-04-12T03:23:33.367Z,14.30
2019-04-12T03:26:03.059Z,14.03
2019-04-12T03:28:32.687Z,14.27
2019-04-12T03:31:03.206Z,14.43
2019-04-12T03:33:32.877Z,14.37
2019-04-12T03:36:02.304Z,15.00
2019-04-12T03:38:33.177Z,14.57
2019-04-12T03:41:03.317Z,15.23
2019-04-12T03:43:32.988Z,15.53
2019-04-12T03:46:02.324Z,15.27
2019-04-12T03:48:32.083Z,16.53
2019-04-12T03:51:01.454Z,16.63
2019-04-12T03:53:30.927Z,15.27
2019-04-12T03:56:07.887Z,12.50
2019-04-12T03:58:31.562Z,12.43
2019-04-12T04:01:01.669Z,12.70
2019-04-12T04:03:31.907Z,13.97
2019-04-12T04:06:01.360Z,12.33
2019-04-12T04:08:30.715Z,12.33
2019-04-12T04:11:00.177Z,12.23
2019-04-12T04:13:29.756Z,15.73
2019-04-12T04:15:59.923Z,14.13
2019-04-12T04:18:30.434Z,12.93
2019-04-12T04:21:21.706Z,12.50
2019-04-12T04:24:01.206Z,14.20
2019-04-12T04:27:01.902Z,14.97
2019-04-12T04:29:50.361Z,13.77
2019-04-12T04:32:45.076Z,15.37
2019-04-12T04:35:15.396Z,12.03
2019-04-12T04:37:48.792Z,14.97
2019-04-12T04:40:19.879Z,16.30
2019-04-12T04:42:49.872Z,15.60
2019-04-12T04:45:20.179Z,16.60
2019-04-12T04:47:49.785Z,25.07
2019-04-12T04:50:19.255Z,20.37
2019-04-12T04:52:48.967Z,17.67
2019-04-12T04:55:18.315Z,18.30
2019-04-12T04:57:47.802Z,24.30
2019-04-12T05:00:17.314Z,20.23
2019-04-12T05:02:46.817Z,24.13
2019-04-12T05:05:16.472Z,22.53
2019-04-12T05:07:45.871Z,26.30
2019-04-12T05:10:15.666Z,25.37
2019-04-12T05:12:45.405Z,20.17
2019-04-12T05:15:16.303Z,17.37
2019-04-12T05:17:45.851Z,18.30
2019-04-12T05:20:15.995Z,16.10
2019-04-12T05:22:45.664Z,25.97
2019-04-12T05:25:15.452Z,21.57
2019-04-12T05:27:44.985Z,25.13
2019-04-12T05:30:14.682Z,23.00
2019-04-12T05:32:44.240Z,23.87
2019-04-12T05:35:13.725Z,28.93
2019-04-12T05:37:43.281Z,23.57
2019-04-12T05:40:12.656Z,19.53
2019-04-12T05:42:42.171Z,19.77
2019-04-12T05:45:13.159Z,21.10
2019-04-12T05:48:07.529Z,17.17
2019-04-12T05:50:39.734Z,20.40
2019-04-12T05:53:09.168Z,26.70
2019-04-12T05:55:42.552Z,22.00
2019-04-12T05:58:23.305Z,22.13
2019-04-12T06:01:16.675Z,28.00
2019-04-12T06:03:45.447Z,32.17
2019-04-12T06:06:14.809Z,34.23
2019-04-12T06:08:44.482Z,33.33
2019-04-12T06:11:13.919Z,28.33
2019-04-12T06:13:44.432Z,28.33
2019-04-12T06:16:14.051Z,23.47
2019-04-12T06:18:45.895Z,16.07
2019-04-12T06:21:38.449Z,22.30
2019-04-12T06:24:07.826Z,20.57
2019-04-12T06:26:46.703Z,20.27
2019-04-12T06:29:16.098Z,23.90
2019-04-12T06:31:45.764Z,16.13
2019-04-12T06:34:15.221Z,13.88
2019-04-12T06:36:44.675Z,15.50
2019-04-12T06:39:14.148Z,16.95
2019-04-12T06:41:43.862Z,17.62
2019-04-12T06:44:13.442Z,17.02
2019-04-12T06:46:43.951Z,22.27
2019-04-12T06:49:13.792Z,17.25
2019-04-12T06:51:44.424Z,12.70
2019-04-12T06:54:13.905Z,11.77
2019-04-12T06:57:08.247Z,13.60
2019-04-12T06:59:37.800Z,14.30
2019-04-12T07:02:23.261Z,14.73
2019-04-12T07:04:55.315Z,12.30
2019-04-12T07:07:24.707Z,9.67
2019-04-12T07:09:54.073Z,17.00
2019-04-12T07:12:23.467Z,12.33
2019-04-12T07:14:52.895Z,10.57
2019-04-12T07:17:22.247Z,9.00
2019-04-12T07:19:51.640Z,9.43
2019-04-12T07:22:21.129Z,8.40
2019-04-12T07:24:50.552Z,6.80
2019-04-12T07:27:20.249Z,9.20
2019-04-12T07:29:49.625Z,8.20
2019-04-12T07:32:19.432Z,7.30
2019-04-12T07:34:48.806Z,11.83
2019-04-12T07:37:18.188Z,11.27
2019-04-12T07:39:47.548Z,9.97
2019-04-12T07:42:17.069Z,5.97
2019-04-12T07:44:46.624Z,5.10
2019-04-12T07:47:16.060Z,6.13
2019-04-12T07:49:45.376Z,7.70
2019-04-12T07:52:24.871Z,5.07
2019-04-12T07:55:13.662Z,5.67
2019-04-12T07:57:52.200Z,6.30
2019-04-12T08:00:43.346Z,5.30
2019-04-12T08:03:30.202Z,7.30
2019-04-12T08:06:07.563Z,5.17
2019-04-12T08:08:36.709Z,6.10
2019-04-12T08:11:06.060Z,6.83
2019-04-12T08:13:35.385Z,6.70
2019-04-12T08:16:04.749Z,7.07
2019-04-12T08:18:34.840Z,6.97
2019-04-12T08:21:04.277Z,7.37
2019-04-12T08:23:33.671Z,6.83
2019-04-12T08:26:03.421Z,5.67
2019-04-12T08:28:33.030Z,9.07
2019-04-12T08:31:02.442Z,6.83
2019-04-12T08:33:31.826Z,9.53
2019-04-12T08:36:01.564Z,6.47
2019-04-12T08:38:31.323Z,6.07
2019-04-12T08:41:00.814Z,10.80
2019-04-12T08:43:30.136Z,8.40
2019-04-12T08:45:59.924Z,8.20
2019-04-12T08:48:29.457Z,10.73
2019-04-12T08:50:58.899Z,5.83
2019-04-12T08:53:28.244Z,6.60
2019-04-12T08:55:57.683Z,6.60
2019-04-12T08:58:27.069Z,5.50
2019-04-12T09:00:56.845Z,6.37
2019-04-12T09:03:26.231Z,6.33
2019-04-12T09:05:55.622Z,4.40
2019-04-12T09:08:24.947Z,6.53
2019-04-12T09:10:54.382Z,7.07
2019-04-12T09:13:23.772Z,7.20
2019-04-12T09:15:53.166Z,5.90
2019-04-12T09:18:22.626Z,5.27
2019-04-12T09:21:10.135Z,5.87
2019-04-12T09:23:47.413Z,7.87
2019-04-12T09:26:16.861Z,4.30
2019-04-12T09:28:46.392Z,4.73
2019-04-12T09:31:15.747Z,4.93
2019-04-12T09:33:46.529Z,6.87
2019-04-12T09:36:16.495Z,4.80
2019-04-12T09:38:45.965Z,12.87
2019-04-12T09:41:15.357Z,6.17
2019-04-12T09:43:45.093Z,6.80
2019-04-12T09:46:14.499Z,8.63
2019-04-12T09:48:43.956Z,5.00
2019-04-12T09:51:14.432Z,5.57
2019-04-12T09:53:43.848Z,6.90
2019-04-12T09:56:13.217Z,5.97
2019-04-12T09:58:42.600Z,4.87
2019-04-12T10:01:12.287Z,6.37
2019-04-12T10:03:41.764Z,6.30
2019-04-12T10:06:11.103Z,8.00
2019-04-12T10:08:40.394Z,5.60
2019-04-12T10:11:09.771Z,6.17
2019-04-12T10:13:39.166Z,8.47
2019-04-12T10:16:08.541Z,6.77
2019-04-12T10:18:37.903Z,10.13
2019-04-12T10:21:07.246Z,5.37
2019-04-12T10:23:36.700Z,4.30
2019-04-12T10:26:06.058Z,6.67
2019-04-12T10:28:35.400Z,5.17
2019-04-12T10:31:04.744Z,6.57
2019-04-12T10:33:34.104Z,6.33
2019-04-12T10:36:03.475Z,8.07
2019-04-12T10:38:35.871Z,4.77
2019-04-12T10:41:05.381Z,5.00
2019-04-12T10:43:35.001Z,5.77
2019-04-12T10:46:10.009Z,9.87
2019-04-12T10:48:58.301Z,4.73
2019-04-12T10:51:52.821Z,7.33
2019-04-12T10:54:47.575Z,5.30
2019-04-12T10:57:16.909Z,5.67
2019-04-12T10:59:46.279Z,8.70
2019-04-12T11:02:15.731Z,5.27
2019-04-12T11:04:45.095Z,5.27
2019-04-12T11:07:14.461Z,6.23
2019-04-12T11:09:43.858Z,4.90
2019-04-12T11:12:13.214Z,5.83
2019-04-12T11:14:42.660Z,5.37
2019-04-12T11:17:11.998Z,6.17
2019-04-12T11:19:41.366Z,5.43
2019-04-12T11:22:10.700Z,5.73
2019-04-12T11:24:40.041Z,7.07
2019-04-12T11:27:09.383Z,5.37
2019-04-12T11:29:38.675Z,5.87
2019-04-12T11:32:08.076Z,5.13
2019-04-12T11:34:37.508Z,5.60
2019-04-12T11:37:06.890Z,5.30
2019-04-12T11:39:36.318Z,5.33
2019-04-12T11:42:05.656Z,6.70
2019-04-12T11:44:34.983Z,6.07
2019-04-12T11:47:04.371Z,7.10
2019-04-12T11:49:33.675Z,4.57
2019-04-12T11:52:03.048Z,6.43
2019-04-12T11:54:32.427Z,5.47
2019-04-12T11:57:01.784Z,5.23
2019-04-12T11:59:31.169Z,4.70
2019-04-12T12:02:06.963Z,3.60
2019-04-12T12:04:52.645Z,4.53
2019-04-12T12:07:49.976Z,6.77
2019-04-12T12:10:40.027Z,4.23
2019-04-12T12:13:40.583Z,3.80
2019-04-12T12:16:31.868Z,3.20
2019-04-12T12:19:03.564Z,3.20
2019-04-12T12:21:32.914Z,2.90
2019-04-12T12:24:02.283Z,4.83
2019-04-12T12:26:31.659Z,4.60
2019-04-12T12:29:01.067Z,2.67
2019-04-12T12:31:30.442Z,4.37
2019-04-12T12:33:59.779Z,4.73
2019-04-12T12:36:29.157Z,4.53
2019-04-12T12:38:58.516Z,5.33
2019-04-12T12:41:28.039Z,6.97
2019-04-12T12:46:45.043Z,7.23
2019-04-12T12:49:14.398Z,7.03
2019-04-12T12:51:43.827Z,8.53
2019-04-12T12:54:13.192Z,6.07
2019-04-12T12:56:42.531Z,4.50
2019-04-12T12:59:11.904Z,4.00
2019-04-12T13:01:41.311Z,6.60
2019-04-12T13:04:10.692Z,6.53
2019-04-12T13:06:40.141Z,11.27
2019-04-12T13:09:09.675Z,8.87
2019-04-12T13:11:39.041Z,5.47
2019-04-12T13:14:08.852Z,3.90
2019-04-12T13:16:38.148Z,4.87
2019-04-12T13:19:07.502Z,4.17
2019-04-12T13:21:36.857Z,4.33
2019-04-12T13:24:06.175Z,3.23
2019-04-12T13:26:35.516Z,3.63
2019-04-12T13:29:04.822Z,3.33
2019-04-12T13:31:53.086Z,3.33
2019-04-12T13:34:28.992Z,3.30
2019-04-12T13:37:07.720Z,4.00
2019-04-12T13:39:54.661Z,6.93
2019-04-12T13:42:36.303Z,5.63
2019-04-12T13:45:06.666Z,7.20
2019-04-12T13:47:36.105Z,5.87
2019-04-12T13:50:06.509Z,6.50
2019-04-12T13:52:35.817Z,4.60
2019-04-12T13:55:06.062Z,5.03
2019-04-12T13:57:35.419Z,4.10
2019-04-12T14:00:18.100Z,4.93
2019-04-12T14:02:37.501Z,6.20
2019-04-12T14:05:07.225Z,5.17
2019-04-12T14:07:36.604Z,7.30
2019-04-12T14:10:06.905Z,6.93
2019-04-12T14:12:36.231Z,7.90
2019-04-12T14:15:06.455Z,10.77
2019-04-12T14:17:35.864Z,14.47
2019-04-12T14:20:05.737Z,11.63
2019-04-12T14:22:35.109Z,12.90
2019-04-12T14:25:05.097Z,13.57
2019-04-12T14:27:34.602Z,15.77
2019-04-12T14:30:05.699Z,17.47
2019-04-12T14:32:39.748Z,16.50
2019-04-12T14:35:31.848Z,17.43
2019-04-12T14:38:05.314Z,13.67
2019-04-12T14:40:42.698Z,15.40
2019-04-12T14:43:13.589Z,13.87
2019-04-12T14:46:01.930Z,13.90
2019-04-12T14:48:31.340Z,15.13
2019-04-12T14:51:00.849Z,15.17
2019-04-12T14:53:30.240Z,15.03
2019-04-12T14:55:59.591Z,15.47
2019-04-12T14:58:28.940Z,16.33
2019-04-12T15:01:09.125Z,14.80
2019-04-12T15:03:29.544Z,15.00
2019-04-12T15:05:58.949Z,15.10
2019-04-12T15:08:28.330Z,15.70
2019-04-12T15:10:57.666Z,14.67
2019-04-12T15:13:28.286Z,14.73
2019-04-12T15:15:57.665Z,15.77
2019-04-12T15:18:27.166Z,15.73
2019-04-12T15:20:56.580Z,13.33
2019-04-12T15:23:26.008Z,21.43
2019-04-12T15:25:55.497Z,14.13
2019-04-12T15:28:24.929Z,14.47
2019-04-12T15:30:58.416Z,16.70
2019-04-12T15:33:25.747Z,16.67
2019-04-12T15:35:55.104Z,17.30
2019-04-12T15:38:24.440Z,17.67
2019-04-12T15:40:53.822Z,16.87
2019-04-12T15:43:23.191Z,14.73
2019-04-12T15:45:52.573Z,13.20
2019-04-12T15:48:21.966Z,13.03
2019-04-12T15:50:51.343Z,13.63
2019-04-12T15:53:20.724Z,16.13
2019-04-12T15:55:50.117Z,15.43
2019-04-12T15:58:19.488Z,14.37
2019-04-12T16:01:10.973Z,14.37
2019-04-12T16:03:32.389Z,18.53
2019-04-12T16:06:02.289Z,15.77
2019-04-12T16:08:44.484Z,16.97
2019-04-12T16:11:16.348Z,18.57
2019-04-12T16:14:10.572Z,26.50
2019-04-12T16:17:24.110Z,21.57
2019-04-12T16:19:55.039Z,20.07
2019-04-12T16:22:24.423Z,25.47
2019-04-12T16:24:53.739Z,43.33
2019-04-12T16:27:23.189Z,32.50
2019-04-12T16:30:08.212Z,17.63
2019-04-12T16:32:53.778Z,11.90
2019-04-12T16:35:45.136Z,11.87
2019-04-12T16:38:17.649Z,13.47
2019-04-12T16:40:47.087Z,13.43
2019-04-12T16:43:16.453Z,11.63
2019-04-12T16:45:45.839Z,12.63
2019-04-12T16:48:15.223Z,16.20
2019-04-12T16:50:44.586Z,13.97
2019-04-12T16:53:14.031Z,14.60
2019-04-12T16:55:43.444Z,23.10
2019-04-12T16:58:13.761Z,34.80
2019-04-12T17:00:43.321Z,54.10
2019-04-12T17:03:12.684Z,61.93
2019-04-12T17:05:42.373Z,75.87
2019-04-12T17:08:11.844Z,82.93
2019-04-12T17:10:41.232Z,115.33
2019-04-12T17:13:11.957Z,210.37
2019-04-12T17:15:41.586Z,59.77
2019-04-12T17:18:11.008Z,30.97
2019-04-12T17:20:40.397Z,24.00
2019-04-12T17:23:09.795Z,18.70
2019-04-12T17:25:39.214Z,17.50
2019-04-12T17:28:08.613Z,16.67
2019-04-12T17:30:37.934Z,15.77
2019-04-12T17:33:07.329Z,15.90
2019-04-12T17:35:36.693Z,16.43
2019-04-12T17:38:06.096Z,13.77
2019-04-12T17:40:35.461Z,13.27
2019-04-12T17:43:04.872Z,14.60
2019-04-12T17:45:34.227Z,17.33
2019-04-12T17:48:04.457Z,15.93
2019-04-12T17:50:47.468Z,17.57
2019-04-12T17:53:33.282Z,18.07
2019-04-12T17:56:05.808Z,17.60
2019-04-12T17:58:35.137Z,19.20
2019-04-12T18:01:10.812Z,19.73
2019-04-12T18:03:42.003Z,24.47
2019-04-12T18:06:11.355Z,20.10
2019-04-12T18:08:41.205Z,20.97
2019-04-12T18:11:12.219Z,21.30
2019-04-12T18:13:41.626Z,18.73
2019-04-12T18:16:11.006Z,20.63
2019-04-12T18:18:40.447Z,21.60
2019-04-12T18:21:09.798Z,22.23
2019-04-12T18:23:39.184Z,23.70
2019-04-12T18:26:08.630Z,21.60
2019-04-12T18:28:38.077Z,24.10
2019-04-12T18:31:07.475Z,25.47
2019-04-12T18:33:36.840Z,24.30
2019-04-12T18:36:06.246Z,26.63
2019-04-12T18:38:35.771Z,22.67
2019-04-12T18:41:05.130Z,24.30
2019-04-12T18:43:34.515Z,23.50
2019-04-12T18:46:03.907Z,21.57
2019-04-12T18:48:33.246Z,21.87
2019-04-12T18:51:02.625Z,22.50
2019-04-12T18:53:32.091Z,21.73
2019-04-12T18:56:01.532Z,20.53
2019-04-12T18:58:32.055Z,19.53
2019-04-12T19:01:01.850Z,31.30
2019-04-12T19:03:31.260Z,43.43
2019-04-12T19:06:13.522Z,40.50
2019-04-12T19:08:31.902Z,61.70
2019-04-12T19:11:01.380Z,50.03
2019-04-12T19:13:30.860Z,49.20
2019-04-12T19:16:00.439Z,53.60
2019-04-12T19:18:29.888Z,65.23
2019-04-12T19:20:59.266Z,81.23
2019-04-12T19:23:28.636Z,93.27
2019-04-12T19:25:58.117Z,108.60
2019-04-12T19:28:27.522Z,97.07
2019-04-12T19:30:57.292Z,79.63
2019-04-12T19:33:39.293Z,78.93
2019-04-12T19:36:26.163Z,64.77
2019-04-12T19:39:24.209Z,64.70
2019-04-12T19:41:54.423Z,70.97
2019-04-12T19:44:23.780Z,70.53
2019-04-12T19:46:53.281Z,62.57
2019-04-12T19:49:23.008Z,62.93
2019-04-12T19:51:52.444Z,54.53
2019-04-12T19:54:21.874Z,52.93
2019-04-12T19:56:51.240Z,43.27
2019-04-12T19:59:20.782Z,42.20
2019-04-12T20:01:50.188Z,44.33
2019-04-12T20:04:19.842Z,42.13
2019-04-12T20:06:49.266Z,40.07
2019-04-12T20:09:18.742Z,44.70
2019-04-12T20:11:48.131Z,37.77
2019-04-12T20:14:17.649Z,36.77
2019-04-12T20:16:47.147Z,43.83
2019-04-12T20:19:16.528Z,42.97
2019-04-12T20:21:47.580Z,38.63
2019-04-12T20:24:17.065Z,38.27
2019-04-12T20:26:46.427Z,40.13
2019-04-12T20:29:15.812Z,36.73
2019-04-12T20:31:45.211Z,40.30
2019-04-12T20:34:14.572Z,34.87
2019-04-12T20:36:43.959Z,37.13
2019-04-12T20:39:13.290Z,33.87
2019-04-12T20:41:42.622Z,32.03
2019-04-12T20:44:12.010Z,32.53
2019-04-12T20:46:41.384Z,33.87
2019-04-12T20:49:10.746Z,34.70
2019-04-12T20:51:40.141Z,31.40
2019-04-12T20:54:09.494Z,32.70
2019-04-12T20:56:38.845Z,33.97
2019-04-12T20:59:08.271Z,34.23
2019-04-12T21:01:37.587Z,34.40
2019-04-12T21:04:06.935Z,32.93
2019-04-12T21:06:36.285Z,32.53
2019-04-12T21:09:08.143Z,34.70
2019-04-12T21:11:37.638Z,33.17
2019-04-12T21:14:07.014Z,32.73
2019-04-12T21:16:36.483Z,29.27
2019-04-12T21:19:05.952Z,30.07
2019-04-12T21:21:35.306Z,30.40
2019-04-12T21:24:04.639Z,30.13
2019-04-12T21:26:34.013Z,32.77
2019-04-12T21:29:03.373Z,32.57
2019-04-12T21:31:32.709Z,29.80
2019-04-12T21:34:02.135Z,29.53
2019-04-12T21:36:31.587Z,25.77
2019-04-12T21:39:00.934Z,24.33
2019-04-12T21:41:30.428Z,22.10
2019-04-12T21:44:10.949Z,23.33
2019-04-12T21:46:30.929Z,22.87
2019-04-12T21:49:00.262Z,18.63
2019-04-12T21:51:29.632Z,18.60
2019-04-12T21:53:59.008Z,19.00
2019-04-12T21:56:28.353Z,20.30
2019-04-12T21:58:57.735Z,15.80
2019-04-12T22:01:27.391Z,18.40
2019-04-12T22:03:57.227Z,14.80
2019-04-12T22:06:26.857Z,12.63
2019-04-12T22:08:56.358Z,14.40
2019-04-12T22:11:25.798Z,10.30
2019-04-12T22:13:55.147Z,9.87
2019-04-12T22:16:24.572Z,9.33
2019-04-12T22:18:53.951Z,10.30
2019-04-12T22:21:23.353Z,10.07
2019-04-12T22:23:52.729Z,11.73
2019-04-12T22:26:22.107Z,12.00
2019-04-12T22:28:51.486Z,11.87
2019-04-12T22:31:22.632Z,11.83
2019-04-12T22:33:53.341Z,10.50
2019-04-12T22:36:23.117Z,14.43
2019-04-12T22:38:52.468Z,13.03
2019-04-12T22:41:22.941Z,17.10
2019-04-12T22:43:52.332Z,24.03
2019-04-12T22:46:21.677Z,33.17
2019-04-12T22:48:51.058Z,24.73
2019-04-12T22:51:20.468Z,19.97
2019-04-12T22:53:49.849Z,14.97
2019-04-12T22:56:20.684Z,12.23
2019-04-12T22:58:50.159Z,11.17
2019-04-12T23:01:19.483Z,11.23
2019-04-12T23:03:48.880Z,10.50
2019-04-12T23:06:18.249Z,11.27
2019-04-12T23:08:47.611Z,11.27
2019-04-12T23:11:16.986Z,21.00
2019-04-12T23:13:46.662Z,17.83
2019-04-12T23:16:16.050Z,17.10
2019-04-12T23:18:45.405Z,16.10
2019-04-12T23:21:14.806Z,16.73
2019-04-12T23:23:44.214Z,19.47
2019-04-12T23:26:13.593Z,16.93
2019-04-12T23:28:42.960Z,12.40
2019-04-12T23:31:19.607Z,10.80
2019-04-12T23:34:16.504Z,11.43
2019-04-12T23:36:37.926Z,11.43
2019-04-12T23:39:08.106Z,11.47
2019-04-12T23:41:37.456Z,10.80
2019-04-12T23:44:06.832Z,10.37
2019-04-12T23:46:36.150Z,10.57
2019-04-12T23:49:05.506Z,11.17
2019-04-12T23:51:34.827Z,9.60
2019-04-12T23:54:04.226Z,9.67
2019-04-12T23:56:33.644Z,9.37
2019-04-12T23:59:02.980Z,9.27
